Time;durP1;ratioP1;P1;durP2;ratioP2;P2;SDS_P1;SDS_P2;PMS_P1;PMS_P2;Temp;Humidity;BMP_temperature;BMP_pressure;BME280_temperature;BME280_humidity;BME280_pressure;Samples;Min_cycle;Max_cycle;Signal;HPM_P1;HPM_P2
2022/07/04 00:01:08;;;;;;;7.97;2.28;;;14.60;99.90;;;;;;4934201;29;20050;-70
2022/07/04 00:03:33;;;;;;;9.73;1.98;;;14.60;99.90;;;;;;4937181;29;20159;-69
2022/07/04 00:05:59;;;;;;;4.47;1.58;;;14.60;99.90;;;;;;4938404;29;20078;-69
2022/07/04 00:08:24;;;;;;;7.65;2.88;;;14.50;99.90;;;;;;4937982;29;20097;-69
2022/07/04 00:10:50;;;;;;;9.50;2.88;;;15.70;99.90;;;;;;4938268;29;20492;-69
2022/07/04 00:13:15;;;;;;;6.22;2.40;;;14.50;99.90;;;;;;4932084;29;20063;-69
2022/07/04 00:15:41;;;;;;;6.60;2.35;;;14.40;99.90;;;;;;4924015;29;20436;-69
2022/07/04 00:18:06;;;;;;;18.65;4.30;;;14.40;99.90;;;;;;4932640;29;20052;-69
2022/07/04 00:20:32;;;;;;;18.40;4.35;;;14.40;99.90;;;;;;4930336;29;20507;-69
2022/07/04 00:22:57;;;;;;;9.50;2.85;;;14.30;99.90;;;;;;4937837;29;20023;-69
2022/07/04 00:25:23;;;;;;;13.68;3.95;;;14.30;99.90;;;;;;4937506;29;20051;-69
2022/07/04 00:27:48;;;;;;;13.60;3.28;;;14.30;99.90;;;;;;4938227;29;20027;-69
2022/07/04 00:30:14;;;;;;;10.77;2.85;;;14.30;99.90;;;;;;4937798;29;20107;-69
2022/07/04 00:32:39;;;;;;;4.70;2.03;;;14.10;99.90;;;;;;4937743;29;20539;-69
2022/07/04 00:35:05;;;;;;;9.48;2.60;;;14.10;99.90;;;;;;4937202;29;20036;-69
2022/07/04 00:37:31;;;;;;;8.00;2.33;;;14.10;99.90;;;;;;4937587;29;20028;-69
2022/07/04 00:39:56;;;;;;;6.85;2.67;;;14.10;99.90;;;;;;4922071;29;20050;-69
2022/07/04 00:42:22;;;;;;;3.72;1.70;;;14.10;99.90;;;;;;4937593;29;20498;-70
2022/07/04 00:44:47;;;;;;;4.88;2.00;;;14.10;99.90;;;;;;4937227;29;20039;-70
2022/07/04 00:47:13;;;;;;;7.03;2.03;;;14.10;99.90;;;;;;4933507;29;20035;-70
2022/07/04 00:49:40;;;;;;;9.07;3.03;;;14.10;99.90;;;;;;4937121;29;20046;-70
2022/07/04 00:52:05;;;;;;;2.92;2.00;;;13.90;99.90;;;;;;4937616;29;20032;-70
2022/07/04 00:54:31;;;;;;;7.00;2.40;;;13.90;99.90;;;;;;4936526;29;20367;-70
2022/07/04 00:56:57;;;;;;;6.97;2.70;;;14.00;99.90;;;;;;4935936;29;20047;-70
2022/07/04 00:59:22;;;;;;;10.27;2.00;;;13.70;99.90;;;;;;4936687;29;20043;-70
2022/07/04 01:01:49;;;;;;;7.65;2.67;;;13.90;99.90;;;;;;4933356;29;20612;-69
2022/07/04 01:04:14;;;;;;;10.20;2.10;;;13.90;99.90;;;;;;4936600;29;20404;-69
2022/07/04 01:06:40;;;;;;;8.77;1.95;;;13.90;99.90;;;;;;4936964;29;20028;-69
2022/07/04 01:09:05;;;;;;;5.70;2.15;;;13.80;99.90;;;;;;4936853;29;20035;-69
2022/07/04 01:11:31;;;;;;;7.95;2.78;;;13.70;99.90;;;;;;4936405;29;20023;-69
2022/07/04 01:13:57;;;;;;;4.13;2.13;;;13.70;99.90;;;;;;4936915;29;20501;-69
2022/07/04 01:16:24;;;;;;;10.02;2.55;;;13.70;99.90;;;;;;4936988;29;20452;-69
2022/07/04 01:18:51;;;;;;;8.00;2.60;;;13.70;99.90;;;;;;4920083;29;20057;-69
2022/07/04 01:21:17;;;;;;;5.75;2.22;;;13.80;99.90;;;;;;4935696;29;20036;-68
2022/07/04 01:23:43;;;;;;;6.45;2.40;;;13.80;99.90;;;;;;4920248;29;20050;-68
2022/07/04 01:26:08;;;;;;;7.28;2.15;;;13.70;99.90;;;;;;4936577;29;20506;-68
2022/07/04 01:28:34;;;;;;;5.93;2.63;;;13.70;99.90;;;;;;4936725;29;20114;-68
2022/07/04 01:30:59;;;;;;;7.00;2.92;;;13.70;99.90;;;;;;4936824;29;20031;-68
2022/07/04 01:33:25;;;;;;;4.32;2.20;;;13.60;99.90;;;;;;4936667;29;20042;-68
2022/07/04 01:35:50;;;;;;;8.90;2.70;;;13.50;99.90;;;;;;4936352;29;20047;-69
2022/07/04 01:38:16;;;;;;;10.15;3.17;;;13.50;99.90;;;;;;4935560;29;20043;-70
2022/07/04 01:40:41;;;;;;;15.93;4.30;;;14.50;99.90;;;;;;4936285;29;20036;-71
2022/07/04 01:43:07;;;;;;;15.82;4.20;;;13.40;99.90;;;;;;4936806;29;20063;-72
2022/07/04 01:45:37;;;;;;;15.95;4.63;;;13.40;99.90;;;;;;4936673;29;20038;-72
2022/07/04 01:48:06;;;;;;;9.07;2.72;;;13.40;99.90;;;;;;4937075;29;20043;-72
2022/07/04 01:50:32;;;;;;;5.65;3.10;;;13.20;99.90;;;;;;4936135;29;20086;-72
2022/07/04 01:52:57;;;;;;;8.57;3.53;;;13.20;99.90;;;;;;4936678;29;20115;-71
2022/07/04 01:55:23;;;;;;;6.05;3.17;;;13.20;99.90;;;;;;4936386;29;20472;-72
2022/07/04 01:58:06;;;;;;;10.02;4.00;;;13.20;99.90;;;;;;4936731;29;20028;-72
2022/07/04 02:03:16;;;;;;;10.27;3.92;;;13.10;99.90;;;;;;4936146;29;20069;-73
2022/07/04 02:05:42;;;;;;;9.43;3.63;;;13.60;99.90;;;;;;4936291;29;20036;-72
2022/07/04 02:08:11;;;;;;;23.63;4.60;;;13.00;99.90;;;;;;4935274;29;20028;-72
2022/07/04 02:10:36;;;;;;;4.85;2.90;;;13.00;99.90;;;;;;4936116;29;20551;-72
2022/07/04 02:13:02;;;;;;;6.68;3.13;;;13.10;99.90;;;;;;4936318;29;20118;-73
2022/07/04 02:15:36;;;;;;;10.02;3.00;;;13.00;99.90;;;;;;4935949;29;20381;-72
2022/07/04 02:18:02;;;;;;;9.75;3.55;;;12.90;99.90;;;;;;4936246;29;20393;-71
2022/07/04 02:20:28;;;;;;;13.68;4.40;;;13.40;99.90;;;;;;4935814;29;20154;-71
2022/07/04 02:22:53;;;;;;;13.98;4.22;;;12.90;99.90;;;;;;4936065;29;20536;-72
2022/07/04 02:25:19;;;;;;;16.73;5.10;;;12.80;99.90;;;;;;4918728;29;20531;-72
2022/07/04 02:27:44;;;;;;;23.90;5.82;;;12.80;99.90;;;;;;4919337;29;20024;-72
2022/07/04 02:30:11;;;;;;;25.48;7.32;;;12.80;99.90;;;;;;4936066;29;20024;-72
2022/07/04 02:32:36;;;;;;;13.73;4.32;;;12.80;99.90;;;;;;4935874;29;20091;-72
2022/07/04 02:35:02;;;;;;;11.52;4.78;;;12.70;99.90;;;;;;4935975;29;20527;-73
2022/07/04 02:37:28;;;;;;;9.70;5.03;;;12.70;99.90;;;;;;4935864;29;20155;-72
2022/07/04 02:39:53;;;;;;;11.93;4.88;;;12.60;99.90;;;;;;4918821;29;20489;-73
2022/07/04 02:42:19;;;;;;;10.70;5.30;;;12.60;99.90;;;;;;4918672;29;20115;-73
2022/07/04 02:44:45;;;;;;;23.42;5.75;;;12.60;99.90;;;;;;4935893;29;20476;-73
2022/07/04 02:47:11;;;;;;;13.38;4.68;;;13.40;99.90;;;;;;4935739;29;20039;-73
2022/07/04 02:49:36;;;;;;;14.55;4.43;;;12.50;99.90;;;;;;4935484;29;20453;-73
2022/07/04 02:52:02;;;;;;;24.25;5.40;;;12.50;99.90;;;;;;4935537;29;20055;-73
2022/07/04 02:54:27;;;;;;;15.15;5.40;;;12.50;99.90;;;;;;4932669;29;20027;-74
2022/07/04 02:56:53;;;;;;;11.48;4.35;;;12.40;99.90;;;;;;4935685;29;20079;-72
2022/07/04 02:59:18;;;;;;;13.00;5.63;;;12.40;99.90;;;;;;4935267;29;20027;-72
2022/07/04 03:01:44;;;;;;;9.02;5.40;;;12.40;99.90;;;;;;4935720;29;20030;-72
2022/07/04 03:04:09;;;;;;;14.85;6.28;;;12.40;99.90;;;;;;4935639;29;20114;-72
2022/07/04 03:06:35;;;;;;;22.67;7.25;;;12.40;99.90;;;;;;4935501;29;20044;-73
2022/07/04 03:09:00;;;;;;;35.30;8.82;;;12.50;99.90;;;;;;4935450;29;20033;-72
2022/07/04 03:11:26;;;;;;;24.25;7.28;;;12.50;99.90;;;;;;4935315;29;20024;-72
2022/07/04 03:13:51;;;;;;;31.83;7.05;;;12.40;99.90;;;;;;4921610;29;20032;-72
2022/07/04 03:16:17;;;;;;;28.55;7.32;;;12.50;99.90;;;;;;4931091;29;20041;-72
2022/07/04 03:18:42;;;;;;;20.50;7.03;;;12.40;99.90;;;;;;4930070;29;20472;-72
2022/07/04 03:21:08;;;;;;;43.83;10.40;;;12.40;99.90;;;;;;4940872;29;20028;-72
2022/07/04 03:23:34;;;;;;;48.72;10.90;;;12.40;99.90;;;;;;4941417;29;20032;-72
2022/07/04 03:25:59;;;;;;;34.45;8.95;;;12.30;99.90;;;;;;4941673;29;20051;-72
2022/07/04 03:28:25;;;;;;;22.35;7.18;;;12.30;99.90;;;;;;4941743;29;20023;-73
2022/07/04 03:30:51;;;;;;;40.25;10.40;;;13.00;99.90;;;;;;4941876;29;20170;-72
2022/07/04 03:33:16;;;;;;;23.75;7.78;;;12.40;99.90;;;;;;4941601;29;20020;-72
2022/07/04 03:35:42;;;;;;;27.05;7.72;;;12.40;99.90;;;;;;4941536;29;20023;-72
2022/07/04 03:38:07;;;;;;;36.13;9.77;;;12.30;99.90;;;;;;4940758;29;20071;-73
2022/07/04 03:40:35;;;;;;;33.28;10.43;;;12.40;99.90;;;;;;4941739;29;20118;-73
2022/07/04 03:43:00;;;;;;;28.98;8.43;;;12.40;99.90;;;;;;4941734;29;20380;-73
2022/07/04 03:45:26;;;;;;;27.17;7.80;;;12.40;99.90;;;;;;4941521;29;20034;-73
2022/07/04 03:47:51;;;;;;;28.63;8.98;;;13.20;99.90;;;;;;4927444;29;20481;-73
2022/07/04 03:50:17;;;;;;;25.02;8.45;;;12.50;99.90;;;;;;4922597;29;20491;-73
2022/07/04 03:52:42;;;;;;;25.63;8.82;;;12.50;99.90;;;;;;4922651;29;20046;-72
2022/07/04 03:55:08;;;;;;;24.50;7.40;;;12.40;99.90;;;;;;4922682;29;20533;-72
2022/07/04 03:57:34;;;;;;;18.90;7.60;;;12.40;99.90;;;;;;4921387;29;20035;-73
2022/07/04 03:59:59;;;;;;;31.15;9.50;;;12.50;99.90;;;;;;4922706;29;20027;-73
2022/07/04 04:02:25;;;;;;;29.67;8.27;;;12.60;99.90;;;;;;4927132;29;20031;-73
2022/07/04 04:07:34;;;;;;;34.60;8.88;;;12.60;99.90;;;;;;4935308;29;20116;-71
2022/07/04 04:10:00;;;;;;;16.90;6.70;;;12.70;99.90;;;;;;4941372;29;20039;-72
2022/07/04 04:12:25;;;;;;;13.15;5.47;;;12.70;99.90;;;;;;4941213;29;20036;-72
2022/07/04 04:14:51;;;;;;;38.55;9.25;;;12.80;99.90;;;;;;4941274;29;20424;-72
2022/07/04 04:17:16;;;;;;;31.92;8.55;;;13.30;99.90;;;;;;4941555;29;20035;-72
2022/07/04 04:19:42;;;;;;;24.38;7.07;;;13.60;99.90;;;;;;4940969;29;20028;-72
2022/07/04 04:22:08;;;;;;;16.80;6.03;;;14.00;99.90;;;;;;4924811;29;20076;-71
2022/07/04 04:24:33;;;;;;;12.30;4.55;;;14.50;99.90;;;;;;4922288;29;20477;-73
2022/07/04 04:26:58;;;;;;;18.92;5.63;;;14.50;99.90;;;;;;4923831;29;20056;-73
2022/07/04 04:29:24;;;;;;;18.95;5.50;;;14.70;99.90;;;;;;4923417;29;20032;-72
2022/07/04 04:31:50;;;;;;;25.92;7.47;;;15.10;99.90;;;;;;4937480;29;20039;-72
2022/07/04 04:34:15;;;;;;;19.92;5.53;;;15.20;99.90;;;;;;4938225;29;20046;-72
2022/07/04 04:36:41;;;;;;;19.13;5.13;;;15.70;99.90;;;;;;4938211;29;20091;-73
2022/07/04 04:39:06;;;;;;;14.45;5.60;;;15.90;99.90;;;;;;4938105;29;20499;-72
2022/07/04 04:41:32;;;;;;;21.35;6.68;;;16.00;99.90;;;;;;4935105;29;20030;-72
2022/07/04 04:43:57;;;;;;;26.85;6.13;;;15.70;99.90;;;;;;4919222;29;20039;-73
2022/07/04 04:46:23;;;;;;;6.93;3.33;;;15.60;99.90;;;;;;4936757;29;20035;-71
2022/07/04 04:48:48;;;;;;;12.80;3.72;;;15.60;99.90;;;;;;4935945;29;20042;-66
2022/07/04 04:51:14;;;;;;;7.70;3.50;;;15.80;99.90;;;;;;4937876;29;20054;-67
2022/07/04 04:53:39;;;;;;;12.82;4.70;;;15.40;99.90;;;;;;4937823;29;20539;-67
2022/07/04 04:56:05;;;;;;;6.00;4.63;;;15.60;99.90;;;;;;4919821;29;20040;-66
2022/07/04 04:58:31;;;;;;;11.20;5.68;;;15.70;99.90;;;;;;4901913;29;20051;-66
2022/07/04 05:00:56;;;;;;;5.35;4.47;;;16.00;99.90;;;;;;4918886;29;20039;-67
2022/07/04 05:03:22;;;;;;;11.48;4.53;;;15.70;99.90;;;;;;4920262;29;20055;-67
2022/07/04 05:05:47;;;;;;;9.75;5.13;;;15.70;99.90;;;;;;4923431;29;20035;-67
2022/07/04 05:08:13;;;;;;;10.63;4.88;;;15.70;99.90;;;;;;4936990;29;20040;-67
2022/07/04 05:10:41;;;;;;;11.02;5.13;;;16.70;99.90;;;;;;4937023;29;20050;-67
2022/07/04 05:13:07;;;;;;;13.48;5.15;;;17.20;99.90;;;;;;4920041;29;20027;-67
2022/07/04 05:15:33;;;;;;;8.10;3.78;;;17.90;99.90;;;;;;4937324;29;20028;-67
2022/07/04 05:17:59;;;;;;;17.25;5.25;;;18.50;99.90;;;;;;4922284;29;20044;-67
2022/07/04 05:20:25;;;;;;;13.30;6.07;;;18.90;99.30;;;;;;4919938;29;20115;-67
2022/07/04 05:22:50;;;;;;;18.73;6.47;;;18.40;99.80;;;;;;4936879;29;20110;-67
2022/07/04 05:25:16;;;;;;;46.22;12.43;;;18.40;99.90;;;;;;4919473;29;20040;-68
2022/07/04 05:27:41;;;;;;;16.48;6.03;;;18.20;99.90;;;;;;4920005;29;20040;-68
2022/07/04 05:30:07;;;;;;;11.80;5.78;;;17.50;99.90;;;;;;4937157;29;20055;-68
2022/07/04 05:32:33;;;;;;;17.35;6.25;;;16.90;99.90;;;;;;4937167;29;20023;-68
2022/07/04 05:34:58;;;;;;;11.57;4.70;;;16.80;99.90;;;;;;4937009;29;20395;-66
2022/07/04 05:37:24;;;;;;;14.25;4.53;;;16.80;99.90;;;;;;4937194;29;20095;-69
2022/07/04 05:39:50;;;;;;;10.13;4.40;;;17.00;99.90;;;;;;4937253;29;20066;-69
2022/07/04 05:42:15;;;;;;;18.45;5.82;;;17.20;99.90;;;;;;4919970;29;20031;-70
2022/07/04 05:44:41;;;;;;;16.65;4.85;;;17.40;99.90;;;;;;4919313;29;20043;-67
2022/07/04 05:47:07;;;;;;;14.52;4.95;;;17.90;99.90;;;;;;4919929;29;20035;-67
2022/07/04 05:49:33;;;;;;;11.52;6.03;;;18.10;99.90;;;;;;4936861;29;20055;-68
2022/07/04 05:51:58;;;;;;;13.50;5.03;;;18.60;99.90;;;;;;4937032;29;20502;-68
2022/07/04 05:54:24;;;;;;;11.25;4.35;;;19.50;99.60;;;;;;4936798;29;20027;-68
2022/07/04 05:56:49;;;;;;;19.42;4.60;;;19.60;98.30;;;;;;4919782;29;20036;-68
2022/07/04 05:59:15;;;;;;;12.50;5.15;;;19.10;99.20;;;;;;4936803;29;20030;-68
2022/07/04 06:01:40;;;;;;;14.82;4.63;;;18.80;99.90;;;;;;4936608;29;20480;-70
2022/07/04 06:04:06;;;;;;;12.85;4.93;;;19.40;98.60;;;;;;4936729;29;20155;-68
2022/07/04 06:06:31;;;;;;;10.52;4.45;;;19.60;97.90;;;;;;4936599;29;20027;-68
2022/07/04 06:08:57;;;;;;;13.73;5.63;;;19.90;96.90;;;;;;4936632;29;20028;-68
2022/07/04 06:11:23;;;;;;;14.40;4.43;;;19.10;98.80;;;;;;4936605;29;20028;-68
2022/07/04 06:13:49;;;;;;;14.13;5.03;;;19.70;97.90;;;;;;4936103;29;20055;-65
2022/07/04 06:16:15;;;;;;;9.65;4.20;;;20.10;96.40;;;;;;4936444;29;20050;-65
2022/07/04 06:18:40;;;;;;;8.32;4.07;;;21.00;94.50;;;;;;4936383;29;20023;-65
2022/07/04 06:21:06;;;;;;;16.02;4.45;;;21.70;92.80;;;;;;4936464;29;20024;-65
2022/07/04 06:23:32;;;;;;;13.88;3.88;;;21.70;93.30;;;;;;4936354;29;20446;-65
2022/07/04 06:25:57;;;;;;;13.13;4.13;;;21.40;92.40;;;;;;4936292;29;20027;-65
2022/07/04 06:28:23;;;;;;;11.65;4.28;;;21.50;92.20;;;;;;4936360;29;20087;-65
2022/07/04 06:30:48;;;;;;;10.90;4.05;;;20.90;93.70;;;;;;4936164;29;20108;-66
2022/07/04 06:33:14;;;;;;;16.98;4.25;;;21.50;93.10;;;;;;4936260;29;20437;-65
2022/07/04 06:35:45;;;;;;;15.07;4.35;;;22.00;91.00;;;;;;4935894;29;20476;-65
2022/07/04 06:38:12;;;;;;;15.88;3.65;;;22.40;91.00;;;;;;4936256;29;20074;-65
2022/07/04 06:40:37;;;;;;;13.98;3.72;;;22.70;87.70;;;;;;4936007;29;20028;-65
2022/07/04 06:43:03;;;;;;;11.90;3.38;;;22.50;89.40;;;;;;4936030;29;20023;-65
2022/07/04 06:45:28;;;;;;;17.25;3.60;;;22.90;87.10;;;;;;4936009;29;20031;-66
2022/07/04 06:47:54;;;;;;;9.48;2.75;;;22.90;84.40;;;;;;4936125;29;20475;-65
2022/07/04 06:50:19;;;;;;;10.38;3.38;;;24.00;79.40;;;;;;4935933;29;20110;-65
2022/07/04 06:52:45;;;;;;;18.38;4.03;;;21.90;88.60;;;;;;4935525;29;20103;-65
2022/07/04 06:55:10;;;;;;;7.97;2.70;;;22.60;87.80;;;;;;4935682;29;20472;-65
2022/07/04 07:04:20;;;;;;;14.63;3.00;;;23.40;75.60;;;;;;4935799;29;20022;-66
2022/07/04 07:06:46;;;;;;;8.55;2.13;;;23.20;75.80;;;;;;4935929;29;20024;-66
2022/07/04 07:09:11;;;;;;;9.63;1.95;;;23.00;76.80;;;;;;4935576;29;20024;-66
2022/07/04 07:11:37;;;;;;;7.60;1.30;;;23.50;67.80;;;;;;4935320;29;20379;-73
2022/07/04 07:14:02;;;;;;;7.72;1.80;;;23.70;64.80;;;;;;4935219;29;20040;-72
2022/07/04 07:16:28;;;;;;;5.68;1.52;;;23.20;70.90;;;;;;4935544;29;20119;-72
2022/07/04 07:18:53;;;;;;;9.20;2.28;;;23.40;69.40;;;;;;4935324;29;20123;-70
2022/07/04 07:21:19;;;;;;;4.75;1.25;;;23.60;68.30;;;;;;4918743;29;20048;-70
2022/07/04 07:23:44;;;;;;;5.57;1.00;;;24.70;64.50;;;;;;4918612;29;20095;-70
2022/07/04 07:26:10;;;;;;;6.93;1.17;;;24.10;61.30;;;;;;4935642;29;20468;-70
2022/07/04 07:28:36;;;;;;;9.00;2.08;;;23.70;65.90;;;;;;4935209;29;20111;-70
2022/07/04 07:31:01;;;;;;;9.35;1.60;;;24.60;63.70;;;;;;4935609;29;20056;-70
2022/07/04 07:33:27;;;;;;;6.28;1.70;;;25.30;58.80;;;;;;4935464;29;20070;-71
2022/07/04 07:35:52;;;;;;;7.15;1.50;;;23.70;62.40;;;;;;4935287;29;20083;-70
2022/07/04 07:38:18;;;;;;;9.93;1.40;;;23.50;64.80;;;;;;4935275;29;20038;-70
2022/07/04 07:40:44;;;;;;;9.63;2.47;;;24.00;63.10;;;;;;4935361;29;20078;-70
2022/07/04 07:43:09;;;;;;;9.50;1.58;;;23.60;63.30;;;;;;4935507;29;20012;-71
2022/07/04 07:45:35;;;;;;;7.13;1.60;;;23.60;63.90;;;;;;4935040;29;20038;-70
2022/07/04 07:48:00;;;;;;;6.05;1.08;;;24.10;61.20;;;;;;4935347;29;20035;-71
2022/07/04 07:50:26;;;;;;;4.68;1.23;;;24.80;59.00;;;;;;4934933;29;20030;-70
2022/07/04 07:52:51;;;;;;;6.05;1.42;;;26.20;56.30;;;;;;4935158;29;20031;-71
2022/07/04 07:55:17;;;;;;;11.60;2.33;;;24.90;57.00;;;;;;4917562;29;20425;-70
2022/07/04 07:57:42;;;;;;;9.60;1.17;;;25.00;58.10;;;;;;4922313;29;20027;-70
2022/07/04 08:00:08;;;;;;;4.55;1.15;;;25.90;56.00;;;;;;4935162;29;20039;-70
2022/07/04 08:05:18;;;;;;;3.88;1.33;;;26.70;53.60;;;;;;4935715;29;20091;-71
2022/07/04 08:07:43;;;;;;;6.53;1.95;;;27.70;51.70;;;;;;4921755;29;20035;-69
2022/07/04 08:10:09;;;;;;;9.75;1.83;;;26.80;51.80;;;;;;4938873;29;20174;-70
2022/07/04 08:12:35;;;;;;;6.07;2.17;;;25.80;52.70;;;;;;4937871;29;20051;-70
2022/07/04 08:15:00;;;;;;;4.53;1.67;;;25.90;53.60;;;;;;4938405;29;20217;-71
2022/07/04 08:17:27;;;;;;;2.05;1.20;;;26.40;54.00;;;;;;4938689;29;20558;-71
2022/07/04 08:20:26;;;;;;;4.50;1.60;;;26.20;54.20;;;;;;4938471;29;20070;-72
2022/07/04 08:22:52;;;;;;;5.60;1.05;;;26.70;53.30;;;;;;4938209;29;20060;-71
2022/07/04 08:25:17;;;;;;;2.38;0.93;;;26.40;53.00;;;;;;4938545;29;20051;-71
2022/07/04 08:27:43;;;;;;;5.85;1.40;;;27.40;53.30;;;;;;4938311;29;20035;-75
2022/07/04 08:30:09;;;;;;;3.40;0.90;;;28.20;51.60;;;;;;4938134;29;20032;-77
2022/07/04 08:32:34;;;;;;;6.22;1.17;;;26.50;52.10;;;;;;4938354;29;20063;-76
2022/07/04 08:35:01;;;;;;;3.70;1.40;;;25.10;56.20;;;;;;4938315;29;20035;-75
2022/07/04 08:37:28;;;;;;;4.72;1.05;;;25.90;54.00;;;;;;4921357;29;20116;-74
2022/07/04 08:39:53;;;;;;;6.63;1.77;;;27.00;54.70;;;;;;4938167;29;20118;-74
2022/07/04 08:42:20;;;;;;;2.92;0.98;;;26.80;54.50;;;;;;4938177;29;20060;-75
2022/07/04 08:44:50;;;;;;;2.97;1.08;;;25.40;52.30;;;;;;4938058;29;20395;-74
2022/07/04 08:47:20;;;;;;;3.50;1.00;;;25.20;53.00;;;;;;4938205;29;20047;-74
2022/07/04 08:50:25;;;;;;;3.72;1.00;;;25.80;52.90;;;;;;4937910;29;20027;-74
2022/07/04 08:52:54;;;;;;;6.75;1.52;;;25.70;53.10;;;;;;4936926;29;20036;-72
2022/07/04 09:00:48;;;;;;;8.40;1.97;;;27.00;49.90;;;;;;4923421;29;20043;-72
2022/07/04 09:03:32;;;;;;;4.22;1.08;;;26.90;50.40;;;;;;4906642;29;20028;-72
2022/07/04 09:06:04;;;;;;;4.07;1.48;;;28.40;50.00;;;;;;4917511;29;20074;-72
2022/07/04 09:08:33;;;;;;;5.72;1.90;;;27.60;48.40;;;;;;4927621;29;20054;-72
2022/07/04 09:11:11;;;;;;;2.58;0.95;;;25.70;50.40;;;;;;4921232;29;20031;-73
2022/07/04 09:13:40;;;;;;;3.05;1.00;;;26.70;50.60;;;;;;4922292;29;20058;-71
2022/07/04 09:16:06;;;;;;;13.75;1.65;;;26.30;50.70;;;;;;4917571;29;20047;-70
2022/07/04 09:18:33;;;;;;;4.35;1.13;;;27.30;53.50;;;;;;4917548;29;20111;-71
2022/07/04 09:21:01;;;;;;;6.78;1.50;;;27.50;49.40;;;;;;4918717;29;20028;-71
2022/07/04 09:23:35;;;;;;;5.35;1.48;;;29.10;49.90;;;;;;4917473;29;20028;-71
2022/07/04 09:26:09;;;;;;;4.15;1.45;;;28.00;47.70;;;;;;4918137;29;20032;-71
2022/07/04 09:28:35;;;;;;;6.28;1.75;;;29.20;46.80;;;;;;4918420;29;20035;-72
2022/07/04 09:31:01;;;;;;;5.18;1.70;;;29.40;47.50;;;;;;4918336;29;20529;-71
2022/07/04 09:33:46;;;;;;;6.38;1.35;;;27.50;49.10;;;;;;4918305;29;20035;-71
2022/07/04 09:36:13;;;;;;;5.07;1.08;;;28.20;50.10;;;;;;4917148;29;20036;-71
2022/07/04 09:38:39;;;;;;;3.47;1.20;;;26.10;50.10;;;;;;4918110;29;20028;-71
2022/07/04 09:44:05;;;;;;;2.13;0.80;;;28.80;48.90;;;;;;4918174;29;20031;-74
2022/07/04 09:46:31;;;;;;;1.48;0.65;;;29.60;46.20;;;;;;4918164;29;20051;-74
2022/07/04 09:48:56;;;;;;;3.92;1.00;;;29.20;45.30;;;;;;4917880;29;20036;-73
2022/07/04 09:51:44;;;;;;;4.93;1.23;;;29.60;46.40;;;;;;4916788;29;20118;-74
2022/07/04 09:54:14;;;;;;;6.72;1.35;;;30.10;47.00;;;;;;4918071;29;20028;-75
2022/07/04 09:56:44;;;;;;;7.05;1.35;;;28.80;48.90;;;;;;4917796;29;20059;-74
2022/07/04 09:59:09;;;;;;;5.07;1.20;;;29.40;47.50;;;;;;4918029;29;20396;-74
2022/07/04 10:01:35;;;;;;;6.13;1.50;;;29.90;47.60;;;;;;4917837;29;20024;-75
2022/07/04 10:04:03;;;;;;;3.25;1.20;;;28.80;47.90;;;;;;4917708;29;20032;-75
2022/07/04 10:06:31;;;;;;;6.72;1.60;;;29.50;47.10;;;;;;4916669;29;20028;-75
2022/07/04 10:09:14;;;;;;;6.50;1.63;;;29.90;45.70;;;;;;4917638;29;20087;-75
2022/07/04 10:11:41;;;;;;;5.88;1.80;;;28.40;46.20;;;;;;4916528;29;20565;-75
2022/07/04 10:14:08;;;;;;;3.85;1.05;;;28.00;48.90;;;;;;4916347;29;20126;-75
2022/07/04 10:16:33;;;;;;;8.77;1.70;;;28.30;49.10;;;;;;4917564;29;20028;-76
2022/07/04 10:18:59;;;;;;;3.92;1.20;;;27.40;48.20;;;;;;4917404;29;20024;-75
2022/07/04 10:21:24;;;;;;;5.05;1.50;;;27.20;50.20;;;;;;4916365;29;20028;-76
2022/07/04 10:23:51;;;;;;;4.97;1.83;;;28.70;48.20;;;;;;4917431;29;20021;-76
2022/07/04 10:26:19;;;;;;;3.88;1.10;;;27.80;49.80;;;;;;4917513;29;20401;-73
2022/07/04 10:28:45;;;;;;;6.57;3.03;;;29.00;48.80;;;;;;4916657;29;20120;-73
2022/07/04 10:31:12;;;;;;;4.80;1.63;;;29.40;47.70;;;;;;4916308;29;20063;-73
2022/07/04 10:33:38;;;;;;;5.38;1.25;;;29.10;47.50;;;;;;4916003;29;20103;-73
2022/07/04 10:36:15;;;;;;;5.82;1.73;;;29.90;47.70;;;;;;4915929;29;20127;-73
2022/07/04 10:38:50;;;;;;;3.88;1.45;;;28.80;48.70;;;;;;4916181;29;20032;-73
2022/07/04 10:41:18;;;;;;;3.42;1.00;;;30.20;48.20;;;;;;4917200;29;20028;-73
2022/07/04 10:43:57;;;;;;;2.83;1.10;;;31.00;49.10;;;;;;4900606;29;20031;-73
2022/07/04 10:46:23;;;;;;;4.30;1.00;;;29.70;47.20;;;;;;4917183;29;20060;-73
2022/07/04 10:48:56;;;;;;;5.80;1.30;;;28.20;46.60;;;;;;4916912;29;20024;-74
2022/07/04 10:51:48;;;;;;;4.30;1.17;;;27.70;48.70;;;;;;4915831;29;20401;-74
2022/07/04 10:54:30;;;;;;;4.38;1.10;;;29.50;46.70;;;;;;4917063;29;20543;-74
2022/07/04 10:56:56;;;;;;;5.63;0.93;;;28.70;46.40;;;;;;4915189;29;20028;-73
2022/07/04 10:59:26;;;;;;;5.15;1.10;;;28.90;46.80;;;;;;4916475;29;20393;-74
2022/07/04 11:02:09;;;;;;;4.03;1.05;;;27.50;47.30;;;;;;4899071;29;20123;-73
2022/07/04 11:04:53;;;;;;;6.88;1.20;;;28.40;46.60;;;;;;4916304;29;20127;-73
2022/07/04 11:07:19;;;;;;;6.72;1.27;;;28.00;46.20;;;;;;4915387;29;20020;-73
2022/07/04 11:09:45;;;;;;;6.13;0.90;;;28.80;49.20;;;;;;4899326;29;20032;-73
2022/07/04 11:12:12;;;;;;;6.15;1.30;;;29.80;45.40;;;;;;4915233;29;20016;-74
2022/07/04 11:14:41;;;;;;;4.32;1.10;;;28.00;46.90;;;;;;4916116;29;20052;-74
2022/07/04 11:17:08;;;;;;;2.75;1.48;;;28.00;48.50;;;;;;4916388;29;20035;-74
2022/07/04 11:19:33;;;;;;;5.18;1.40;;;30.20;47.20;;;;;;4916211;29;20172;-74
2022/07/04 11:21:59;;;;;;;3.95;1.27;;;29.90;49.10;;;;;;4916122;29;20020;-74
2022/07/04 11:24:25;;;;;;;4.78;1.40;;;30.80;44.70;;;;;;4916141;29;20029;-74
2022/07/04 11:26:50;;;;;;;2.95;1.15;;;28.90;45.30;;;;;;4915852;29;20362;-74
2022/07/04 11:29:16;;;;;;;7.38;2.00;;;28.30;48.10;;;;;;4899297;29;20115;-74
2022/07/04 11:31:48;;;;;;;3.15;1.27;;;28.00;47.60;;;;;;4916089;29;20024;-74
2022/07/04 11:34:13;;;;;;;4.15;1.08;;;26.40;48.90;;;;;;4916160;29;20032;-74
2022/07/04 11:36:40;;;;;;;2.67;0.90;;;26.80;51.90;;;;;;4899184;29;20119;-74
2022/07/04 11:39:07;;;;;;;2.83;1.00;;;26.60;49.60;;;;;;4916177;29;20063;-74
2022/07/04 11:47:15;;;;;;;3.13;1.00;;;27.00;49.00;;;;;;4905554;29;20043;-79
2022/07/04 11:49:48;;;;;;;4.97;1.10;;;27.60;49.50;;;;;;4919555;29;20096;-78
2022/07/04 11:52:14;;;;;;;6.37;1.30;;;27.50;49.10;;;;;;4902933;29;20392;-79
2022/07/04 11:54:41;;;;;;;1.95;0.70;;;27.40;50.10;;;;;;4887297;29;20084;-79
2022/07/04 11:57:31;;;;;;;2.17;1.05;;;27.10;48.10;;;;;;4902790;29;20025;-79
2022/07/04 12:00:04;;;;;;;5.63;1.10;;;27.40;50.50;;;;;;4912711;29;20072;-79
2022/07/04 12:02:30;;;;;;;4.53;1.30;;;26.90;49.30;;;;;;4903678;29;20097;-78
2022/07/04 12:04:57;;;;;;;6.32;1.75;;;27.10;49.00;;;;;;4919419;29;20107;-78
2022/07/04 12:07:24;;;;;;;6.05;1.70;;;27.30;49.80;;;;;;4887236;29;20497;-78
2022/07/04 12:09:50;;;;;;;3.15;1.17;;;26.00;51.70;;;;;;4919268;29;20047;-79
2022/07/04 12:12:17;;;;;;;3.60;0.90;;;26.20;52.60;;;;;;4919421;29;20028;-79
2022/07/04 12:15:01;;;;;;;3.33;1.40;;;26.60;48.90;;;;;;4911903;29;20071;-79
2022/07/04 12:17:30;;;;;;;4.65;1.80;;;27.60;48.80;;;;;;4919263;29;20024;-81
2022/07/04 12:20:12;;;;;;;5.82;1.63;;;28.10;47.90;;;;;;4919019;29;20028;-81
2022/07/04 12:22:42;;;;;;;2.30;0.93;;;28.30;47.60;;;;;;4918238;29;20028;-80
2022/07/04 12:25:20;;;;;;;4.72;1.13;;;27.90;46.20;;;;;;4918001;29;20032;-80
2022/07/04 12:27:58;;;;;;;8.35;2.53;;;28.90;48.80;;;;;;4918002;29;20036;-80
2022/07/04 12:30:24;;;;;;;5.50;1.00;;;30.00;47.80;;;;;;4918084;29;20024;-80
2022/07/04 12:33:04;;;;;;;4.30;1.20;;;30.50;43.50;;;;;;4917675;29;20503;-80
2022/07/04 12:35:36;;;;;;;5.93;1.42;;;27.70;47.40;;;;;;4917923;29;20777;-79
2022/07/04 12:38:07;;;;;;;3.95;0.90;;;28.00;47.80;;;;;;4917794;29;20066;-79
2022/07/04 12:40:33;;;;;;;6.40;1.30;;;27.50;46.10;;;;;;4919165;29;20174;-78
2022/07/04 12:42:59;;;;;;;7.88;1.70;;;26.90;48.10;;;;;;4917587;29;20399;-79
2022/07/04 12:45:25;;;;;;;4.07;1.17;;;28.70;48.00;;;;;;4917714;29;20031;-79
2022/07/04 12:47:52;;;;;;;5.07;1.27;;;27.80;48.30;;;;;;4917474;29;20028;-79
2022/07/04 12:50:26;;;;;;;3.60;1.10;;;27.90;46.20;;;;;;4917721;29;20028;-79
2022/07/04 12:52:51;;;;;;;5.82;2.03;;;27.80;47.00;;;;;;4917936;29;20031;-80
2022/07/04 12:55:17;;;;;;;4.35;1.13;;;25.90;48.50;;;;;;4901811;29;20032;-80
2022/07/04 12:57:42;;;;;;;5.15;1.38;;;26.40;48.10;;;;;;4918618;29;20024;-80
2022/07/04 13:00:09;;;;;;;1.65;0.85;;;26.30;48.60;;;;;;4917321;29;20096;-79
2022/07/04 13:02:34;;;;;;;5.70;1.48;;;26.80;47.70;;;;;;4917316;29;20037;-79
2022/07/04 13:05:00;;;;;;;4.40;1.00;;;26.50;49.40;;;;;;4918503;29;20389;-78
2022/07/04 13:07:28;;;;;;;5.75;1.23;;;26.70;48.00;;;;;;4918741;29;20480;-80
2022/07/04 13:09:54;;;;;;;5.25;1.20;;;28.00;48.80;;;;;;4918730;29;20032;-79
2022/07/04 13:12:28;;;;;;;2.92;1.23;;;27.10;47.60;;;;;;4917751;29;20032;-80